createdAt,value
2018-12-18T00:00:03.849Z,23.10
2018-12-18T00:02:35.782Z,20.03
2018-12-18T00:05:26.620Z,24.53
2018-12-18T00:07:59.427Z,20.67
2018-12-18T00:10:52.091Z,24.13
2018-12-18T00:13:25.195Z,20.53
2018-12-18T00:16:10.024Z,23.53
2018-12-18T00:18:41.662Z,17.70
2018-12-18T00:21:26.519Z,18.43
2018-12-18T00:23:58.246Z,20.67
2018-12-18T00:26:48.841Z,22.63
2018-12-18T00:29:20.360Z,18.13
2018-12-18T00:58:58.891Z,16.57
2018-12-18T01:01:30.630Z,18.70
2018-12-18T01:44:21.904Z,15.70
2018-12-18T01:46:53.473Z,17.77
2018-12-18T02:02:44.461Z,17.23
2018-12-18T02:05:16.051Z,19.57
2018-12-18T02:07:57.126Z,15.77
2018-12-18T02:10:28.766Z,23.80
2018-12-18T02:39:58.752Z,20.53
2018-12-18T02:42:30.614Z,19.50
2018-12-18T02:45:24.406Z,18.53
2018-12-18T02:47:55.990Z,19.87
2018-12-18T02:50:40.854Z,17.90
2018-12-18T02:53:12.360Z,21.47
2018-12-18T03:09:10.906Z,19.30
2018-12-18T03:11:47.103Z,19.93
2018-12-18T03:14:28.194Z,16.30
2018-12-18T03:16:59.915Z,19.03
2018-12-18T03:19:44.750Z,24.80
2018-12-18T03:22:16.590Z,25.30
2018-12-18T03:25:01.511Z,20.40
2018-12-18T03:27:33.203Z,25.63
2018-12-18T03:30:14.961Z,25.20
2018-12-18T03:32:50.775Z,20.03
2018-12-18T03:35:35.538Z,19.40
2018-12-18T03:38:07.501Z,22.43
2018-12-18T03:53:55.936Z,18.37
2018-12-18T03:56:27.493Z,15.90
2018-12-18T04:12:20.948Z,17.93
2018-12-18T04:14:53.878Z,16.70
2018-12-18T04:17:51.311Z,17.23
2018-12-18T04:20:22.775Z,20.40
2018-12-18T04:23:04.031Z,17.30
2018-12-18T04:25:35.616Z,17.97
2018-12-18T04:28:23.317Z,16.93
2018-12-18T04:30:54.689Z,16.90
2018-12-18T04:33:39.202Z,16.77
2018-12-18T04:36:10.811Z,17.20
2018-12-18T04:51:55.251Z,19.53
2018-12-18T04:54:26.885Z,17.50
2018-12-18T04:56:58.352Z,18.53
2018-12-18T04:59:43.231Z,18.07
2018-12-18T05:02:14.684Z,17.53
2018-12-18T05:18:03.057Z,19.10
2018-12-18T05:20:34.533Z,16.53
2018-12-18T05:23:19.217Z,19.40
2018-12-18T05:25:50.815Z,22.13
2018-12-18T05:28:38.430Z,19.10
2018-12-18T05:31:10.055Z,23.20
2018-12-18T05:33:51.748Z,19.03
2018-12-18T05:36:23.360Z,19.60
2018-12-18T05:39:09.020Z,19.07
2018-12-18T05:41:40.673Z,17.77
2018-12-18T05:44:23.906Z,21.37
2018-12-18T05:46:55.857Z,20.23
2018-12-18T05:49:56.275Z,21.43
2018-12-18T05:52:28.097Z,18.83
2018-12-18T05:55:18.746Z,22.87
2018-12-18T05:57:51.057Z,20.17
2018-12-18T06:00:35.865Z,20.40
2018-12-18T06:03:07.482Z,21.53
2018-12-18T06:05:52.339Z,22.90
2018-12-18T06:08:27.071Z,16.00
2018-12-18T06:11:11.739Z,20.33
2018-12-18T06:13:43.603Z,17.60
2018-12-18T06:16:28.210Z,20.60
2018-12-18T06:18:59.853Z,19.40
2018-12-18T06:21:41.016Z,19.43
2018-12-18T06:24:12.815Z,19.43
2018-12-18T06:27:10.130Z,17.97
2018-12-18T06:29:41.713Z,20.53
2018-12-18T06:32:26.420Z,23.77
2018-12-18T06:34:58.416Z,25.03
2018-12-18T06:37:43.072Z,20.37
2018-12-18T06:40:14.955Z,22.90
2018-12-18T06:42:56.419Z,19.23
2018-12-18T06:45:28.195Z,19.70
2018-12-18T06:48:09.667Z,25.10
2018-12-18T06:50:41.311Z,20.37
2018-12-18T06:53:32.150Z,22.13
2018-12-18T06:56:04.269Z,22.30
2018-12-18T06:58:51.954Z,20.57
2018-12-18T07:01:23.512Z,22.93
2018-12-18T07:04:10.322Z,21.80
2018-12-18T07:06:42.065Z,19.67
2018-12-18T07:09:24.112Z,18.17
2018-12-18T07:11:55.907Z,23.20
2018-12-18T07:14:37.001Z,19.43
2018-12-18T07:17:08.851Z,21.13
2018-12-18T07:19:50.713Z,18.57
2018-12-18T07:22:22.467Z,23.13
2018-12-18T07:25:08.340Z,19.70
2018-12-18T07:27:40.079Z,21.30
2018-12-18T07:30:21.487Z,23.23
2018-12-18T07:32:53.187Z,22.03
2018-12-18T07:35:37.949Z,19.37
2018-12-18T07:38:09.600Z,19.93
2018-12-18T07:41:00.357Z,16.90
2018-12-18T07:43:31.931Z,17.87
2018-12-18T07:46:13.314Z,20.23
2018-12-18T07:48:45.190Z,17.10
2018-12-18T07:51:29.880Z,18.20
2018-12-18T07:54:01.546Z,21.73
2018-12-18T07:56:46.598Z,18.53
2018-12-18T07:59:18.294Z,21.90
2018-12-18T08:02:03.233Z,17.60
2018-12-18T08:04:35.076Z,20.97
2018-12-18T08:07:19.767Z,22.00
2018-12-18T08:09:51.598Z,22.27
2018-12-18T08:12:49.074Z,18.77
2018-12-18T08:15:20.792Z,16.50
2018-12-18T08:31:09.863Z,21.17
2018-12-18T08:33:41.844Z,19.17
2018-12-18T08:36:27.085Z,16.70
2018-12-18T08:38:59.390Z,18.23
2018-12-18T08:41:41.062Z,16.57
2018-12-18T08:44:13.356Z,18.73
2018-12-18T08:46:58.549Z,16.67
2018-12-18T08:49:32.249Z,18.10
2018-12-18T08:52:14.035Z,17.73
2018-12-18T08:54:47.339Z,20.63
2018-12-18T08:57:48.164Z,18.00
2018-12-18T09:00:20.856Z,18.33
2018-12-18T09:03:06.992Z,14.77
2018-12-18T09:05:43.094Z,19.67
2018-12-18T09:08:23.577Z,14.77
2018-12-18T09:10:56.327Z,15.67
2018-12-18T09:13:50.850Z,18.30
2018-12-18T09:16:30.518Z,16.10
2018-12-18T09:19:21.840Z,15.60
2018-12-18T09:21:54.374Z,14.53
2018-12-18T09:50:44.017Z,15.30
2018-12-18T09:53:16.505Z,15.70
2018-12-18T09:55:58.486Z,15.83
2018-12-18T09:58:31.175Z,13.70
2018-12-18T10:01:25.764Z,14.13
2018-12-18T10:03:58.234Z,11.10
2018-12-18T10:06:43.211Z,13.27
2018-12-18T10:09:15.263Z,12.67
2018-12-18T10:12:00.698Z,13.53
2018-12-18T10:14:32.343Z,12.13
2018-12-18T10:17:17.598Z,12.33
2018-12-18T10:19:49.510Z,11.53
2018-12-18T10:35:36.791Z,13.43
2018-12-18T10:38:09.201Z,12.17
2018-12-18T10:40:54.993Z,11.77
2018-12-18T10:43:27.221Z,16.77
2018-12-18T10:46:09.301Z,12.83
2018-12-18T10:48:41.003Z,13.77
2018-12-18T10:51:22.502Z,15.57
2018-12-18T10:53:56.089Z,12.03
2018-12-18T11:09:44.701Z,16.83
2018-12-18T11:12:21.739Z,16.37
2018-12-18T11:15:10.194Z,13.67
2018-12-18T11:17:42.912Z,15.63
2018-12-18T11:20:28.863Z,18.30
2018-12-18T11:23:02.140Z,13.60
2018-12-18T11:25:51.000Z,17.33
2018-12-18T11:28:24.014Z,13.33
2018-12-18T11:31:06.111Z,12.67
2018-12-18T11:33:38.477Z,15.50
2018-12-18T11:36:20.866Z,16.83
2018-12-18T11:38:53.947Z,16.50
2018-12-18T11:41:35.998Z,13.73
2018-12-18T11:44:07.768Z,15.73
2018-12-18T11:46:53.946Z,16.67
2018-12-18T11:49:25.745Z,14.87
2018-12-18T11:52:07.709Z,16.77
2018-12-18T11:54:42.526Z,15.03
2018-12-18T11:57:25.396Z,16.00
2018-12-18T11:59:59.342Z,14.37
2018-12-18T12:02:46.302Z,14.57
2018-12-18T12:05:20.301Z,17.07
2018-12-18T12:08:03.017Z,16.17
2018-12-18T12:10:35.619Z,12.30
2018-12-18T12:13:08.807Z,9.37
2018-12-18T12:15:50.837Z,14.47
2018-12-18T12:18:23.072Z,13.53
2018-12-18T12:21:05.295Z,10.20
2018-12-18T12:23:37.271Z,12.73
2018-12-18T12:26:28.586Z,12.30
2018-12-18T12:29:00.682Z,11.90
2018-12-18T12:31:46.594Z,11.67
2018-12-18T12:34:19.347Z,12.60
2018-12-18T12:36:51.522Z,14.90
2018-12-18T12:39:33.709Z,12.53
2018-12-18T12:42:05.952Z,14.17
2018-12-18T12:44:51.456Z,12.90
2018-12-18T12:47:23.788Z,12.83
2018-12-18T12:49:55.645Z,15.97
2018-12-18T12:52:41.052Z,12.37
2018-12-18T12:55:13.293Z,14.17
2018-12-18T12:58:02.821Z,12.00
2018-12-18T13:00:34.967Z,11.03
2018-12-18T13:03:23.400Z,11.90
2018-12-18T13:05:55.807Z,15.03
2018-12-18T13:08:40.770Z,10.30
2018-12-18T13:11:13.344Z,11.97
2018-12-18T13:13:58.726Z,16.90
2018-12-18T13:16:30.767Z,15.27
2018-12-18T13:32:16.607Z,15.90
2018-12-18T13:34:48.474Z,14.00
2018-12-18T13:37:33.645Z,13.53
2018-12-18T13:40:05.810Z,13.47
2018-12-18T13:42:47.507Z,11.60
2018-12-18T13:45:19.563Z,11.43
2018-12-18T13:48:01.066Z,15.73
2018-12-18T13:50:33.125Z,14.13
2018-12-18T13:53:18.398Z,15.73
2018-12-18T13:55:50.373Z,14.57
2018-12-18T13:58:35.492Z,12.70
2018-12-18T14:01:07.260Z,16.97
2018-12-18T14:03:52.355Z,13.63
2018-12-18T14:06:24.439Z,13.57
2018-12-18T14:09:12.643Z,18.67
2018-12-18T14:11:44.705Z,12.37
2018-12-18T14:14:16.885Z,16.13
2018-12-18T14:17:02.158Z,15.43
2018-12-18T14:19:33.774Z,15.07
2018-12-18T14:22:15.301Z,15.40
2018-12-18T14:24:47.094Z,17.07
2018-12-18T14:27:38.203Z,15.67
2018-12-18T14:30:10.566Z,15.10
2018-12-18T14:33:01.838Z,17.93
2018-12-18T14:35:33.916Z,16.53
2018-12-18T14:38:16.215Z,18.80
2018-12-18T14:40:48.063Z,16.30
2018-12-18T14:43:30.188Z,15.80
2018-12-18T14:46:02.094Z,17.27
2018-12-18T14:48:47.415Z,17.23
2018-12-18T14:51:19.377Z,18.23
2018-12-18T14:54:00.743Z,13.50
2018-12-18T14:56:32.735Z,16.47
2018-12-18T14:59:30.178Z,15.13
2018-12-18T15:02:02.000Z,14.60
2018-12-18T15:04:44.672Z,16.70
2018-12-18T15:07:16.413Z,19.77
2018-12-18T15:23:07.294Z,17.93
2018-12-18T15:25:39.121Z,23.53
2018-12-18T15:28:27.272Z,22.60
2018-12-18T15:30:59.314Z,18.40
2018-12-18T15:33:41.346Z,17.20
2018-12-18T15:36:13.457Z,17.80
2018-12-18T15:52:17.750Z,13.77
2018-12-18T15:54:49.991Z,14.87
2018-12-18T16:10:36.264Z,18.87
2018-12-18T16:13:09.044Z,19.30
2018-12-18T16:15:50.978Z,20.93
2018-12-18T16:18:22.713Z,17.97
2018-12-18T16:21:04.445Z,23.83
2018-12-18T16:23:37.038Z,17.90
2018-12-18T16:26:18.874Z,18.50
2018-12-18T16:28:50.814Z,21.30
2018-12-18T16:31:36.159Z,18.70
2018-12-18T16:34:08.189Z,20.13
2018-12-18T16:36:50.289Z,17.10
2018-12-18T16:39:22.853Z,20.27
2018-12-18T16:42:08.498Z,17.67
2018-12-18T16:44:40.837Z,18.37
2018-12-18T16:47:26.619Z,16.20
2018-12-18T16:49:59.611Z,20.60
2018-12-18T16:52:41.257Z,18.77
2018-12-18T16:55:13.610Z,22.03
2018-12-18T16:57:56.349Z,20.53
2018-12-18T17:00:29.111Z,19.77
2018-12-18T17:03:14.825Z,21.00
2018-12-18T17:05:47.212Z,18.67
2018-12-18T17:08:29.171Z,18.23
2018-12-18T17:11:01.169Z,15.07
2018-12-18T17:13:42.543Z,20.67
2018-12-18T17:16:14.827Z,22.00
2018-12-18T17:19:09.303Z,21.37
2018-12-18T17:21:41.542Z,24.03
2018-12-18T17:24:24.019Z,20.83
2018-12-18T17:26:56.237Z,18.70
2018-12-18T17:43:10.431Z,19.40
2018-12-18T17:45:42.733Z,18.43
2018-12-18T17:48:24.589Z,16.77
2018-12-18T17:50:56.722Z,23.00
2018-12-18T17:53:49.014Z,17.83
2018-12-18T17:56:21.106Z,23.57
2018-12-18T17:59:03.398Z,16.23
2018-12-18T18:01:36.029Z,17.07
2018-12-18T18:04:20.806Z,21.90
2018-12-18T18:06:54.350Z,18.73
2018-12-18T18:09:37.599Z,16.27
2018-12-18T18:12:09.810Z,18.60
2018-12-18T18:27:55.052Z,18.77
2018-12-18T18:30:27.056Z,19.73
2018-12-18T18:33:08.861Z,16.93
2018-12-18T18:35:40.481Z,18.50
2018-12-18T18:38:25.133Z,17.03
2018-12-18T18:40:56.807Z,18.77
2018-12-18T18:43:46.852Z,25.03
2018-12-18T18:46:18.332Z,18.13
2018-12-18T18:49:03.125Z,39.10
2018-12-18T18:51:34.715Z,22.10
2018-12-18T18:54:15.821Z,18.67
2018-12-18T18:56:47.331Z,20.63
2018-12-18T18:59:28.522Z,17.77
2018-12-18T19:02:00.123Z,18.87
2018-12-18T19:04:44.710Z,23.40
2018-12-18T19:07:22.966Z,17.77
2018-12-18T19:10:16.633Z,19.20
2018-12-18T19:12:50.128Z,19.37
2018-12-18T19:15:43.856Z,19.50
2018-12-18T19:18:15.256Z,32.70
2018-12-18T19:20:56.871Z,27.83
2018-12-18T19:23:28.377Z,20.67
2018-12-18T19:26:22.804Z,21.83
2018-12-18T19:28:55.058Z,27.63
2018-12-18T19:31:40.470Z,21.50
2018-12-18T19:34:23.753Z,28.67
2018-12-18T19:40:43.633Z,32.50
2018-12-18T19:46:55.309Z,20.63
2018-12-18T19:49:50.394Z,19.70
2018-12-18T19:52:44.692Z,20.07
2018-12-18T19:55:32.040Z,20.77
2018-12-18T19:58:48.664Z,19.80
2018-12-18T20:05:08.101Z,24.43
2018-12-18T20:07:58.023Z,23.43
2018-12-18T20:17:31.237Z,29.00
2018-12-18T20:20:28.009Z,22.27
2018-12-18T20:23:41.055Z,19.20
2018-12-18T20:26:42.314Z,18.00
2018-12-18T20:29:29.194Z,18.17
2018-12-18T20:32:39.188Z,24.80
2018-12-18T20:51:44.251Z,31.83
2018-12-18T20:54:39.428Z,20.63
2018-12-18T20:58:03.917Z,18.83
2018-12-18T21:00:47.391Z,21.50
2018-12-18T21:03:49.016Z,20.33
2018-12-18T21:06:28.025Z,17.83
2018-12-18T21:09:23.220Z,17.53
2018-12-18T21:15:17.251Z,19.37
2018-12-18T21:19:34.886Z,18.33
2018-12-18T21:25:37.977Z,21.13
2018-12-18T21:28:21.547Z,20.60
2018-12-18T21:36:02.775Z,16.83
2018-12-18T21:38:43.792Z,16.70
2018-12-18T21:45:03.654Z,20.20
2018-12-18T21:58:17.979Z,21.63
2018-12-18T22:01:32.002Z,22.43
2018-12-18T22:04:16.367Z,22.77
2018-12-18T22:07:03.736Z,23.13
2018-12-18T22:09:50.589Z,21.10
2018-12-18T22:12:43.670Z,21.07
2018-12-18T22:15:18.051Z,21.23
2018-12-18T22:17:59.974Z,21.20
2018-12-18T22:20:32.238Z,20.73
2018-12-18T22:23:13.665Z,20.43
2018-12-18T22:25:46.399Z,20.67
2018-12-18T22:28:27.802Z,24.10
2018-12-18T22:30:59.752Z,26.93
2018-12-18T22:33:41.480Z,21.13
2018-12-18T22:36:13.342Z,20.93
2018-12-18T22:38:58.643Z,23.33
2018-12-18T22:41:30.814Z,23.87
2018-12-18T22:44:16.816Z,21.10
2018-12-18T22:46:49.530Z,20.53
2018-12-18T22:49:30.970Z,21.70
2018-12-18T22:52:02.783Z,20.47
2018-12-18T22:54:47.633Z,22.73
2018-12-18T22:57:19.676Z,21.23
2018-12-18T23:00:01.360Z,24.83
2018-12-18T23:02:36.376Z,24.73
2018-12-18T23:05:18.020Z,19.27
2018-12-18T23:07:50.077Z,22.37
2018-12-18T23:10:35.000Z,27.67
2018-12-18T23:13:07.038Z,23.03
2018-12-18T23:15:53.842Z,23.33
2018-12-18T23:18:28.099Z,25.03
2018-12-18T23:21:09.404Z,23.43
2018-12-18T23:23:56.531Z,20.40
2018-12-18T23:26:42.904Z,19.93
2018-12-18T23:29:14.776Z,22.87
2018-12-18T23:31:56.255Z,20.13
2018-12-18T23:34:33.035Z,23.37
2018-12-18T23:37:14.851Z,20.33
2018-12-18T23:39:46.674Z,21.27
2018-12-18T23:42:28.472Z,20.00
2018-12-18T23:45:00.031Z,20.13
2018-12-18T23:47:41.688Z,22.97
2018-12-18T23:50:13.776Z,18.80
2018-12-18T23:53:02.143Z,22.67
2018-12-18T23:55:34.345Z,19.67
2018-12-18T23:58:16.111Z,17.97
